Time;durP1;ratioP1;P1;durP2;ratioP2;P2;SDS_P1;SDS_P2;PMS_P1;PMS_P2;Temp;Humidity;BMP_temperature;BMP_pressure;BME280_temperature;BME280_humidity;BME280_pressure;Samples;Min_cycle;Max_cycle;Signal;HPM_P1;HPM_P2
2021/08/22 00:02:04;;;;;;;6.78;5.05;;;;;;;19.44;74.33;100853.65;1773472;81;21003;-78
2021/08/22 00:04:32;;;;;;;6.58;4.62;;;;;;;19.39;74.46;100847.10;1772890;79;20868;-78
2021/08/22 00:06:59;;;;;;;10.95;5.12;;;;;;;19.34;74.47;100851.52;1773092;80;20916;-78
2021/08/22 00:09:26;;;;;;;5.92;5.42;;;;;;;19.32;74.66;100854.81;1772945;81;20829;-77
2021/08/22 00:11:55;;;;;;;8.73;4.95;;;;;;;19.29;74.82;100852.42;1772839;80;21528;-77
2021/08/22 00:14:22;;;;;;;7.33;4.65;;;;;;;19.27;75.00;100853.05;1772994;81;20864;-77
2021/08/22 00:16:50;;;;;;;7.20;4.83;;;;;;;19.25;75.35;100852.36;1772863;80;20893;-78
2021/08/22 00:19:18;;;;;;;12.05;6.22;;;;;;;19.21;75.34;100851.82;1772842;79;21381;-78
2021/08/22 00:21:45;;;;;;;5.70;5.12;;;;;;;19.16;75.55;100862.02;1773215;81;20927;-78
2021/08/22 00:24:13;;;;;;;6.90;5.65;;;;;;;19.13;75.76;100865.47;1772913;80;20892;-78
2021/08/22 00:26:40;;;;;;;11.50;5.85;;;;;;;19.09;75.98;100867.56;1773140;81;21374;-78
2021/08/22 00:29:07;;;;;;;10.25;5.87;;;;;;;19.05;76.25;100867.03;1772872;81;21397;-78
2021/08/22 00:31:33;;;;;;;5.37;4.87;;;;;;;19.01;76.38;100868.28;1773260;80;20885;-77
2021/08/22 00:34:00;;;;;;;7.00;5.87;;;;;;;18.97;76.47;100866.05;1778651;79;20888;-78
2021/08/22 00:36:28;;;;;;;6.92;5.00;;;;;;;18.93;76.66;100873.95;1778614;80;21126;-78
2021/08/22 00:38:55;;;;;;;7.47;5.58;;;;;;;18.89;76.90;100871.22;1778606;80;21014;-78
2021/08/22 00:41:22;;;;;;;5.90;5.00;;;;;;;18.84;77.12;100872.97;1778717;80;20880;-78
2021/08/22 00:43:49;;;;;;;8.10;5.70;;;;;;;18.81;77.34;100875.91;1780028;80;20900;-78
2021/08/22 00:46:17;;;;;;;6.33;5.30;;;;;;;18.79;77.58;100872.55;1779445;80;21456;-77
2021/08/22 00:48:45;;;;;;;6.00;5.40;;;;;;;18.77;77.50;100875.80;1780918;80;20936;-77
2021/08/22 00:51:15;;;;;;;10.45;5.80;;;;;;;18.74;77.66;100882.24;1781476;80;20872;-77
2021/08/22 00:53:45;;;;;;;8.35;5.80;;;;;;;18.73;77.88;100882.38;1780356;80;20872;-78
2021/08/22 00:56:15;;;;;;;6.65;5.80;;;;;;;18.72;78.17;100881.53;1778881;80;20964;-78
2021/08/22 00:58:43;;;;;;;6.70;6.10;;;;;;;18.73;78.28;100877.89;1778642;80;20844;-80
2021/08/22 01:01:19;;;;;;;6.10;5.62;;;;;;;18.74;78.34;100881.37;1778596;80;21526;-79
2021/08/22 01:03:57;;;;;;;7.30;6.53;;;;;;;18.74;78.32;100883.56;1778915;80;20951;-77
2021/08/22 01:07:13;;;;;;;9.30;6.08;;;;;;;18.75;78.28;100878.59;1778702;79;20986;-78
2021/08/22 01:09:43;;;;;;;;;;;;;;;18.77;78.36;100883.78;1767491;80;21497;-78
2021/08/22 01:12:34;;;;;;;6.25;4.83;;;;;;;18.79;78.36;100888.00;1778712;80;20086;-78
2021/08/22 01:15:07;;;;;;;7.35;5.97;;;;;;;18.78;78.27;100882.31;1778680;79;21331;-78
2021/08/22 01:17:38;;;;;;;5.97;5.35;;;;;;;18.78;78.13;100879.66;1778544;80;20923;-78
2021/08/22 01:20:10;;;;;;;9.43;5.75;;;;;;;18.79;78.11;100884.52;1778726;80;20899;-80
2021/08/22 01:22:38;;;;;;;7.72;5.85;;;;;;;18.78;78.11;100877.50;1778417;80;21405;-78
2021/08/22 01:25:08;;;;;;;6.08;5.28;;;;;;;18.77;78.12;100881.13;1778818;80;20962;-79
2021/08/22 01:27:37;;;;;;;7.00;5.70;;;;;;;18.76;78.24;100884.73;1778654;79;21961;-79
2021/08/22 01:30:10;;;;;;;7.47;6.22;;;;;;;18.74;78.13;100886.22;1778769;79;20978;-78
2021/08/22 01:32:39;;;;;;;7.80;5.85;;;;;;;18.70;78.36;100891.46;1776526;80;20940;-78
2021/08/22 01:35:08;;;;;;;7.85;5.67;;;;;;;18.69;78.41;100888.44;1772859;79;21354;-78
2021/08/22 01:37:34;;;;;;;9.15;6.40;;;;;;;18.68;78.47;100891.25;1773151;80;20947;-78
2021/08/22 01:40:03;;;;;;;7.08;6.37;;;;;;;18.66;78.53;100891.37;1772793;81;21462;-78
2021/08/22 01:42:30;;;;;;;6.45;5.78;;;;;;;18.62;78.59;100888.15;1773105;80;21373;-78
2021/08/22 01:44:59;;;;;;;8.43;5.60;;;;;;;18.61;78.75;100890.97;1772798;81;20884;-77
2021/08/22 01:47:26;;;;;;;7.00;6.05;;;;;;;18.58;78.81;100892.05;1772875;79;20936;-78
2021/08/22 01:49:54;;;;;;;8.15;5.35;;;;;;;18.55;79.00;100887.52;1772926;80;20864;-76
2021/08/22 01:52:20;;;;;;;6.20;5.35;;;;;;;18.54;79.08;100897.78;1773033;80;22215;-79
2021/08/22 01:54:47;;;;;;;6.20;5.20;;;;;;;18.52;79.01;100901.92;1772889;81;20943;-79
2021/08/22 01:57:14;;;;;;;7.05;5.33;;;;;;;18.49;78.77;100896.86;1773134;81;20869;-79
2021/08/22 01:59:41;;;;;;;5.75;5.15;;;;;;;18.48;78.57;100899.18;1772789;81;20928;-79
2021/08/22 02:02:08;;;;;;;5.95;5.35;;;;;;;18.47;78.49;100896.16;1773060;81;20884;-78
2021/08/22 02:04:51;;;;;;;6.12;5.53;;;;;;;18.47;78.33;100901.97;1772783;80;21233;-78
2021/08/22 02:07:20;;;;;;;6.20;5.60;;;;;;;18.45;78.27;100900.77;1773202;81;20959;-78
2021/08/22 02:10:13;;;;;;;6.80;6.22;;;;;;;18.44;77.98;100897.27;1772828;79;20892;-80
2021/08/22 02:12:40;;;;;;;7.65;5.60;;;;;;;18.42;78.17;100901.05;1773864;80;21383;-78
2021/08/22 02:15:15;;;;;;;9.65;6.05;;;;;;;18.42;78.19;100900.55;1773390;79;20920;-83
2021/08/22 02:17:55;;;;;;;6.58;5.95;;;;;;;18.43;78.41;100901.38;1773663;79;21085;-78
2021/08/22 02:20:22;;;;;;;6.35;5.58;;;;;;;18.43;78.70;100902.71;1772760;80;21454;-76
2021/08/22 02:22:50;;;;;;;7.60;5.65;;;;;;;18.45;78.85;100906.07;1772918;79;20832;-78
2021/08/22 02:25:17;;;;;;;6.62;5.60;;;;;;;18.47;78.76;100905.45;1772753;80;20908;-77
2021/08/22 02:27:44;;;;;;;9.90;5.72;;;;;;;18.50;78.59;100909.19;1772901;79;21445;-78
2021/08/22 02:30:12;;;;;;;7.10;5.35;;;;;;;18.52;78.45;100909.89;1772927;80;22117;-79
2021/08/22 02:32:38;;;;;;;8.90;5.45;;;;;;;18.54;78.44;100911.06;1772927;80;20939;-78
2021/08/22 02:35:06;;;;;;;6.35;5.08;;;;;;;18.57;78.38;100914.79;1772919;80;20889;-78
2021/08/22 02:37:33;;;;;;;6.25;5.65;;;;;;;18.58;78.07;100910.64;1772658;81;21461;-79
2021/08/22 02:40:04;;;;;;;7.37;5.08;;;;;;;18.62;77.95;100916.53;1772841;80;20900;-78
2021/08/22 02:42:31;;;;;;;7.30;5.95;;;;;;;18.63;77.81;100916.41;1752029;81;21859;-79
2021/08/22 02:44:58;;;;;;;7.35;5.47;;;;;;;18.66;77.77;100917.95;1773205;81;20989;-78
2021/08/22 02:47:26;;;;;;;8.90;5.55;;;;;;;18.67;77.62;100920.94;1772808;80;21014;-78
2021/08/22 02:49:54;;;;;;;5.75;4.62;;;;;;;18.69;77.57;100919.48;1772780;80;20868;-78
2021/08/22 02:52:20;;;;;;;6.22;5.62;;;;;;;18.71;77.88;100919.70;1772843;81;20904;-78
2021/08/22 02:54:48;;;;;;;7.90;5.58;;;;;;;18.74;78.24;100919.44;1772829;81;21885;-78
2021/08/22 02:57:18;;;;;;;9.80;5.80;;;;;;;18.77;78.29;100923.63;1772894;81;20999;-78
2021/08/22 02:59:46;;;;;;;9.23;5.60;;;;;;;18.79;78.26;100918.56;1751644;81;20944;-78
2021/08/22 03:02:13;;;;;;;6.85;5.37;;;;;;;18.81;78.05;100917.10;1772779;80;20833;-77
2021/08/22 03:04:41;;;;;;;7.47;5.40;;;;;;;18.82;77.86;100919.59;1772916;81;20931;-77
2021/08/22 03:07:09;;;;;;;9.93;5.30;;;;;;;18.84;77.50;100918.14;1772872;80;20885;-77
2021/08/22 03:09:37;;;;;;;7.60;5.17;;;;;;;18.84;76.87;100925.62;1772711;79;20916;-76
2021/08/22 03:12:06;;;;;;;6.03;5.50;;;;;;;18.86;76.74;100926.81;1772925;80;20903;-77
2021/08/22 03:14:34;;;;;;;7.17;4.83;;;;;;;18.88;76.46;100928.02;1772883;80;20916;-76
2021/08/22 03:17:03;;;;;;;8.05;5.00;;;;;;;18.89;76.19;100930.52;1772798;80;21351;-76
2021/08/22 03:19:31;;;;;;;6.15;5.55;;;;;;;18.90;76.00;100934.00;1772846;80;21338;-77
2021/08/22 03:21:58;;;;;;;8.23;5.53;;;;;;;18.89;75.95;100934.50;1772894;81;20837;-78
2021/08/22 03:24:26;;;;;;;7.20;5.62;;;;;;;18.91;75.75;100936.53;1772881;81;20960;-78
2021/08/22 03:26:53;;;;;;;6.50;5.12;;;;;;;18.93;75.41;100942.55;1772806;80;21358;-78
2021/08/22 03:29:20;;;;;;;5.53;5.10;;;;;;;18.96;75.12;100940.94;1773153;79;20869;-78
2021/08/22 03:31:47;;;;;;;7.30;5.20;;;;;;;18.99;75.04;100942.50;1772870;81;21039;-78
2021/08/22 03:34:14;;;;;;;10.28;5.53;;;;;;;19.00;74.65;100943.67;1769238;80;20829;-78
2021/08/22 03:36:42;;;;;;;7.83;5.72;;;;;;;19.03;74.68;100940.75;1768393;81;21453;-78
2021/08/22 03:39:10;;;;;;;5.67;5.05;;;;;;;19.06;74.43;100938.30;1768745;81;21327;-77
2021/08/22 03:41:37;;;;;;;6.80;5.58;;;;;;;19.09;74.30;100940.67;1768949;81;20865;-80
2021/08/22 03:44:05;;;;;;;7.50;4.50;;;;;;;19.12;73.95;100938.22;1768532;81;21766;-77
2021/08/22 03:48:02;;;;;;;8.33;5.12;;;;;;;19.19;74.06;100936.20;1816543;79;22350;-77
2021/08/22 03:50:29;;;;;;;8.45;5.58;;;;;;;19.16;73.87;100943.61;1789798;80;20939;-79
2021/08/22 03:52:56;;;;;;;6.83;5.08;;;;;;;19.19;73.63;100945.52;1789461;80;21241;-77
2021/08/22 03:55:24;;;;;;;6.97;5.15;;;;;;;19.23;73.35;100944.25;1789519;80;21381;-76
2021/08/22 03:57:51;;;;;;;10.15;4.65;;;;;;;19.29;73.03;100947.32;1789539;80;20911;-77
2021/08/22 04:00:18;;;;;;;5.67;4.90;;;;;;;19.31;72.33;100950.19;1789589;80;21002;-78
2021/08/22 04:02:44;;;;;;;6.87;5.50;;;;;;;19.36;72.02;100954.58;1789543;80;20876;-78
2021/08/22 04:05:28;;;;;;;8.37;5.60;;;;;;;19.40;72.00;100952.50;1785863;80;21171;-77
2021/08/22 04:07:59;;;;;;;6.33;4.47;;;;;;;19.43;71.52;100961.51;1789402;80;20916;-78
2021/08/22 04:10:26;;;;;;;7.42;4.33;;;;;;;19.47;71.27;100961.58;1789428;80;20879;-78
2021/08/22 04:12:56;;;;;;;7.22;4.78;;;;;;;19.51;70.93;100948.35;1789426;80;20924;-78
2021/08/22 04:15:24;;;;;;;5.15;4.35;;;;;;;19.56;70.51;100956.73;1789421;80;20923;-77
2021/08/22 04:17:51;;;;;;;7.00;4.87;;;;;;;19.59;70.50;100960.95;1789662;80;21488;-79
2021/08/22 04:20:18;;;;;;;7.25;5.00;;;;;;;19.62;70.12;100960.66;1789392;80;20971;-78
2021/08/22 04:22:46;;;;;;;6.67;4.95;;;;;;;19.65;70.05;100960.36;1789547;80;20938;-79
2021/08/22 04:25:13;;;;;;;6.75;5.22;;;;;;;19.70;69.64;100962.63;1789479;79;21061;-77
2021/08/22 04:27:41;;;;;;;9.38;4.80;;;;;;;19.75;69.72;100967.05;1789437;80;20892;-78
2021/08/22 04:30:10;;;;;;;6.17;5.30;;;;;;;19.81;69.26;100970.44;1789685;80;21080;-77
2021/08/22 04:32:38;;;;;;;6.78;5.37;;;;;;;19.86;68.56;100962.89;1789796;80;21338;-78
2021/08/22 04:35:07;;;;;;;6.22;4.75;;;;;;;19.92;68.41;100964.12;1789515;80;20884;-78
2021/08/22 04:37:34;;;;;;;7.53;5.05;;;;;;;19.98;68.29;100965.71;1789345;80;20954;-77
2021/08/22 04:40:06;;;;;;;6.90;3.92;;;;;;;20.07;67.82;100964.84;1789418;80;20923;-78
2021/08/22 04:42:33;;;;;;;5.22;4.60;;;;;;;20.19;67.39;100966.02;1789435;80;21136;-78
2021/08/22 04:45:00;;;;;;;5.12;4.55;;;;;;;20.29;66.89;100972.95;1789765;80;21037;-79
2021/08/22 04:47:27;;;;;;;5.30;4.45;;;;;;;20.42;66.63;100972.63;1780895;80;20905;-78
2021/08/22 04:49:54;;;;;;;6.50;4.30;;;;;;;20.66;66.12;100976.11;1776399;80;20987;-79
2021/08/22 04:52:22;;;;;;;7.53;4.87;;;;;;;20.97;65.61;100977.11;1776047;80;20888;-79
2021/08/22 04:54:49;;;;;;;8.58;4.45;;;;;;;21.34;64.84;100977.45;1776102;80;21129;-78
2021/08/22 04:57:16;;;;;;;9.20;4.50;;;;;;;21.68;63.85;100978.10;1775738;80;20932;-80
2021/08/22 04:59:43;;;;;;;5.85;5.20;;;;;;;22.02;62.96;100977.31;1775654;80;20908;-80
2021/08/22 05:02:10;;;;;;;6.62;4.95;;;;;;;22.25;61.86;100976.30;1775375;80;20928;-79
2021/08/22 05:04:37;;;;;;;5.58;4.67;;;;;;;22.34;60.79;100976.19;1775404;80;20833;-78
2021/08/22 05:07:05;;;;;;;4.70;3.90;;;;;;;22.44;60.34;100985.41;1775395;80;21118;-79
2021/08/22 05:09:32;;;;;;;8.95;4.25;;;;;;;22.53;60.00;100985.77;1775681;80;20885;-78
2021/08/22 05:12:01;;;;;;;5.72;4.28;;;;;;;22.67;60.08;100988.33;1775280;80;20975;-80
2021/08/22 05:14:33;;;;;;;4.67;4.12;;;;;;;23.00;59.72;100988.95;1775671;80;21335;-81
2021/08/22 05:17:02;;;;;;;4.80;4.40;;;;;;;23.36;59.00;100994.84;1775414;80;20983;-79
2021/08/22 05:19:29;;;;;;;4.12;3.72;;;;;;;23.83;57.87;100992.01;1737874;82;21907;-77
2021/08/22 05:21:57;;;;;;;7.42;3.80;;;;;;;24.37;56.96;100985.52;1775307;80;20893;-78
2021/08/22 05:24:24;;;;;;;5.97;4.45;;;;;;;24.99;55.69;100988.24;1775670;80;21394;-78
2021/08/22 05:26:51;;;;;;;3.70;3.40;;;;;;;25.63;53.75;100984.41;1775397;80;20968;-79
2021/08/22 05:29:17;;;;;;;4.17;3.77;;;;;;;26.22;52.19;100977.78;1775638;80;20896;-78
2021/08/22 05:31:44;;;;;;;5.83;4.35;;;;;;;26.77;50.68;100985.02;1775379;80;21527;-77
2021/08/22 05:34:11;;;;;;;6.30;4.03;;;;;;;27.21;49.60;100985.89;1775685;80;20932;-80
2021/08/22 05:36:38;;;;;;;5.45;3.85;;;;;;;27.60;48.19;100984.59;1775262;80;21023;-81
2021/08/22 05:39:05;;;;;;;4.33;3.95;;;;;;;27.91;47.23;100985.57;1775244;80;20984;-77
2021/08/22 05:41:33;;;;;;;4.75;3.87;;;;;;;28.17;46.42;100975.95;1775486;80;21362;-82
2021/08/22 05:44:00;;;;;;;4.62;3.65;;;;;;;28.44;45.56;100977.77;1775169;80;21078;-78
2021/08/22 05:46:27;;;;;;;5.08;3.90;;;;;;;28.76;45.32;100978.63;1774773;80;20892;-78
2021/08/22 05:48:54;;;;;;;5.40;3.90;;;;;;;29.04;44.62;100979.85;1768217;81;20893;-78
2021/08/22 05:51:23;;;;;;;9.80;3.70;;;;;;;29.25;43.93;100974.80;1768130;81;21394;-79
2021/08/22 05:53:50;;;;;;;6.65;3.72;;;;;;;29.38;43.35;100968.05;1768166;81;20932;-79
2021/08/22 05:56:18;;;;;;;5.33;3.58;;;;;;;29.43;42.76;100970.95;1768301;81;21127;-77
2021/08/22 05:58:45;;;;;;;3.08;2.77;;;;;;;29.30;42.62;100968.25;1768459;80;20932;-78
2021/08/22 06:01:12;;;;;;;4.72;3.37;;;;;;;29.18;43.10;100972.09;1768215;81;20971;-78
2021/08/22 06:03:39;;;;;;;3.98;3.25;;;;;;;29.23;43.40;100970.95;1768520;81;20971;-78
2021/08/22 06:06:09;;;;;;;6.05;3.60;;;;;;;29.40;43.63;100970.56;1768097;81;20991;-79
2021/08/22 06:08:35;;;;;;;4.10;2.80;;;;;;;29.67;43.19;100976.25;1768629;80;21126;-81
2021/08/22 06:11:04;;;;;;;4.75;3.50;;;;;;;30.08;42.55;100981.09;1768076;81;21433;-79
2021/08/22 06:13:32;;;;;;;8.78;3.47;;;;;;;30.50;41.68;100972.95;1768389;80;20932;-79
2021/08/22 06:15:59;;;;;;;8.18;4.25;;;;;;;30.92;41.00;100983.39;1768349;81;20964;-79
2021/08/22 06:18:26;;;;;;;3.77;3.08;;;;;;;31.30;40.60;100981.97;1768476;81;20881;-79
2021/08/22 06:20:53;;;;;;;3.80;3.10;;;;;;;31.67;40.11;100983.47;1768242;81;21136;-79
2021/08/22 06:23:20;;;;;;;3.58;2.95;;;;;;;32.04;39.50;100983.55;1768297;80;21351;-78
2021/08/22 06:25:47;;;;;;;4.72;2.62;;;;;;;32.37;39.17;100985.03;1768114;81;20905;-79
2021/08/22 06:28:14;;;;;;;7.03;4.10;;;;;;;32.63;38.67;100985.25;1768152;81;20928;-81
2021/08/22 06:30:43;;;;;;;4.25;2.65;;;;;;;32.90;37.99;100988.42;1768299;81;20896;-79
2021/08/22 06:33:10;;;;;;;4.28;2.52;;;;;;;33.20;37.61;100987.06;1767722;80;21588;-81
2021/08/22 06:35:37;;;;;;;2.70;2.50;;;;;;;33.50;37.00;100981.25;1768051;81;21391;-80
2021/08/22 06:38:06;;;;;;;5.42;3.40;;;;;;;33.72;36.69;100977.44;1767703;80;20881;-81
2021/08/22 06:40:32;;;;;;;7.30;3.35;;;;;;;33.90;36.36;100985.46;1768291;81;20873;-82
2021/08/22 06:42:59;;;;;;;6.00;3.62;;;;;;;34.06;35.93;100979.30;1768388;81;20948;-83
2021/08/22 06:45:27;;;;;;;6.45;3.00;;;;;;;34.18;35.67;100986.64;1768087;80;21146;-79
2021/08/22 06:47:54;;;;;;;4.65;3.37;;;;;;;34.24;34.84;100984.30;1771850;80;20889;-79
2021/08/22 06:50:23;;;;;;;12.88;11.75;;;;;;;34.35;34.72;100983.47;1775261;80;21425;-79
2021/08/22 06:52:51;;;;;;;7.90;3.92;;;;;;;34.49;35.09;100988.64;1775527;80;20904;-80
2021/08/22 06:55:18;;;;;;;4.42;3.40;;;;;;;34.70;34.73;100982.52;1775258;80;20881;-79
2021/08/22 06:57:46;;;;;;;4.15;3.42;;;;;;;34.94;34.42;100984.59;1775178;80;21148;-79
2021/08/22 07:00:15;;;;;;;3.62;3.33;;;;;;;35.08;34.19;100983.73;1775247;80;20991;-81
2021/08/22 07:02:43;;;;;;;3.12;2.87;;;;;;;35.28;34.09;100986.02;1775321;80;20900;-80
2021/08/22 07:05:10;;;;;;;4.17;3.77;;;;;;;35.44;34.12;100991.17;1775486;80;20976;-79
2021/08/22 07:07:37;;;;;;;3.85;3.55;;;;;;;35.56;33.85;100993.83;1775128;80;20873;-79
2021/08/22 07:10:05;;;;;;;4.03;3.60;;;;;;;35.64;33.07;100994.78;1775182;80;21124;-80
2021/08/22 07:12:32;;;;;;;4.45;3.02;;;;;;;35.73;32.67;100996.55;1775406;80;21096;-78
2021/08/22 07:14:59;;;;;;;6.03;3.72;;;;;;;35.89;32.57;100997.89;1775865;80;21272;-80
2021/08/22 07:17:26;;;;;;;6.95;3.87;;;;;;;36.04;32.88;100995.06;1775164;80;20936;-81
2021/08/22 07:19:53;;;;;;;3.85;3.45;;;;;;;36.15;31.70;100996.88;1775552;80;20932;-79
2021/08/22 07:22:20;;;;;;;6.05;4.25;;;;;;;36.25;32.57;100997.56;1775411;80;21129;-77
2021/08/22 07:24:46;;;;;;;6.55;3.92;;;;;;;36.26;32.79;100998.69;1775608;80;20864;-79
2021/08/22 07:27:13;;;;;;;4.62;4.05;;;;;;;36.30;32.83;100998.98;1775271;80;21529;-79
2021/08/22 07:29:40;;;;;;;5.85;4.70;;;;;;;36.43;31.73;100996.41;1775623;80;20964;-81
2021/08/22 07:32:07;;;;;;;8.10;4.80;;;;;;;36.54;31.25;101002.83;1775189;80;20848;-79
2021/08/22 07:34:34;;;;;;;5.50;4.15;;;;;;;36.64;31.66;100998.84;1775862;80;21473;-81
2021/08/22 07:37:01;;;;;;;7.20;3.90;;;;;;;36.80;31.53;100996.58;1775114;80;20967;-74
2021/08/22 07:39:28;;;;;;;8.30;4.28;;;;;;;37.02;31.31;100995.15;1775395;80;20947;-76
2021/08/22 07:41:55;;;;;;;6.55;4.95;;;;;;;37.10;30.22;100989.77;1738152;82;20913;-77
2021/08/22 07:44:22;;;;;;;5.37;4.28;;;;;;;36.93;30.26;100989.33;1775489;80;21453;-78
2021/08/22 07:46:49;;;;;;;5.10;4.62;;;;;;;36.77;30.33;101000.36;1775082;80;22147;-79
2021/08/22 07:49:19;;;;;;;5.00;4.60;;;;;;;36.70;30.63;100996.46;1774878;80;21003;-78
2021/08/22 07:51:48;;;;;;;4.90;3.67;;;;;;;36.71;30.52;100997.58;1775599;80;20885;-77
2021/08/22 07:54:15;;;;;;;5.67;4.10;;;;;;;36.80;30.11;100990.27;1775161;80;21787;-79
2021/08/22 07:56:42;;;;;;;5.72;5.03;;;;;;;36.79;29.82;100992.73;1775488;80;21452;-77
2021/08/22 07:59:09;;;;;;;4.50;3.85;;;;;;;36.67;29.66;100992.34;1775027;80;21524;-71
2021/08/22 08:01:36;;;;;;;3.98;3.67;;;;;;;36.61;30.86;100992.00;1775337;80;20912;-79
2021/08/22 08:04:03;;;;;;;3.80;3.50;;;;;;;36.64;29.91;100986.55;1775101;80;20900;-75
2021/08/22 08:06:30;;;;;;;4.28;3.60;;;;;;;36.70;30.42;100996.46;1775284;80;20925;-77
2021/08/22 08:08:58;;;;;;;8.65;3.15;;;;;;;36.81;29.64;100985.09;1775263;80;21021;-78
2021/08/22 08:11:27;;;;;;;3.60;3.30;;;;;;;37.04;28.95;100982.56;1775184;80;20841;-74
2021/08/22 08:13:54;;;;;;;3.67;3.37;;;;;;;37.24;29.07;100980.05;1775044;80;20916;-82
2021/08/22 08:16:21;;;;;;;7.50;3.40;;;;;;;37.41;27.97;100981.80;1775400;80;20920;-74
2021/08/22 08:18:47;;;;;;;4.22;3.87;;;;;;;37.54;28.02;100983.53;1774998;80;20900;-80
2021/08/22 08:21:15;;;;;;;4.03;3.70;;;;;;;37.69;27.62;100981.48;1775091;80;20932;-80
2021/08/22 08:23:42;;;;;;;6.85;3.83;;;;;;;37.85;27.79;100985.13;1775133;80;21168;-75
2021/08/22 08:26:09;;;;;;;4.17;3.65;;;;;;;38.03;27.95;100986.61;1775412;80;20960;-76
2021/08/22 08:28:36;;;;;;;5.33;4.15;;;;;;;38.14;27.98;100980.08;1775237;80;21082;-72
2021/08/22 08:31:03;;;;;;;4.00;3.60;;;;;;;38.19;27.80;100977.09;1775548;80;20960;-77
2021/08/22 08:33:29;;;;;;;5.40;3.65;;;;;;;38.21;27.07;100987.23;1775244;80;20947;-76
2021/08/22 08:35:57;;;;;;;3.30;3.02;;;;;;;38.12;27.27;100982.26;1775157;80;21148;-77
2021/08/22 08:38:23;;;;;;;3.75;3.45;;;;;;;38.13;26.51;100978.45;1774969;80;20980;-78
2021/08/22 08:40:50;;;;;;;5.30;3.20;;;;;;;38.21;26.63;100981.75;1775466;80;21497;-76
2021/08/22 08:43:17;;;;;;;5.92;3.15;;;;;;;38.32;26.34;100977.95;1775253;80;20940;-78
2021/08/22 08:46:06;;;;;;;7.22;3.40;;;;;;;38.39;25.73;100973.03;1775490;80;21367;-76
2021/08/22 08:48:56;;;;;;;6.10;3.45;;;;;;;38.45;25.55;100981.56;1779598;80;21524;-76
2021/08/22 08:51:49;;;;;;;4.22;3.52;;;;;;;38.48;25.67;100983.77;1783761;80;21452;-81
2021/08/22 08:54:44;;;;;;;5.42;3.37;;;;;;;38.43;26.31;100974.70;1783688;80;21478;-79
2021/08/22 08:57:13;;;;;;;7.10;3.42;;;;;;;38.39;26.36;100968.92;1783486;80;20979;-80
2021/08/22 08:59:41;;;;;;;3.65;3.25;;;;;;;38.44;26.46;100977.70;1783415;80;20979;-81
2021/08/22 09:02:09;;;;;;;2.85;2.65;;;;;;;38.46;26.34;100976.34;1783527;80;21145;-80
2021/08/22 09:05:00;;;;;;;5.08;2.52;;;;;;;38.46;26.32;100978.27;1783414;80;21443;-79
2021/08/22 09:08:04;;;;;;;7.75;2.70;;;;;;;38.41;25.04;100974.96;1783836;80;20888;-81
2021/08/22 09:11:00;;;;;;;2.47;2.27;;;;;;;38.34;25.88;100976.59;1783632;80;20961;-80
2021/08/22 09:14:09;;;;;;;3.17;2.77;;;;;;;38.36;24.45;100972.22;1760527;80;21391;-80
2021/08/22 09:17:20;;;;;;;4.03;3.27;;;;;;;38.30;24.29;100967.25;1783310;80;21589;-79
2021/08/22 09:20:35;;;;;;;4.97;3.08;;;;;;;38.35;25.02;100970.03;1783659;80;20868;-77
2021/08/22 09:23:58;;;;;;;3.20;2.90;;;;;;;38.29;25.00;100971.66;1779505;80;20935;-81
2021/08/22 09:27:19;;;;;;;3.58;3.22;;;;;;;38.02;24.99;100977.28;1784007;80;20881;-79
2021/08/22 09:30:26;;;;;;;2.98;2.67;;;;;;;37.22;26.66;100977.27;1783872;80;20908;-79
2021/08/22 09:33:40;;;;;;;3.10;2.80;;;;;;;36.31;26.72;100971.97;1718864;82;22344;-85
2021/08/22 09:36:32;;;;;;;4.97;2.67;;;;;;;35.53;28.81;100983.39;1731845;82;20978;-82
2021/08/22 09:39:30;;;;;;;3.47;3.15;;;;;;;34.67;30.18;100974.84;1731882;81;21014;-80
2021/08/22 09:42:44;;;;;;;3.22;2.65;;;;;;;34.30;30.60;100973.81;1731793;82;21069;-83
2021/08/22 09:45:31;;;;;;;;;;;;;;;34.18;31.35;100977.12;1734535;82;21515;-82
2021/08/22 09:48:53;;;;;;;3.75;2.42;;;;;;;34.25;29.06;100971.81;1728772;82;21132;-86
2021/08/22 09:51:58;;;;;;;4.25;2.17;;;;;;;34.42;29.89;100967.81;1712081;82;21577;-82
2021/08/22 09:55:07;;;;;;;3.42;2.20;;;;;;;34.80;29.64;100969.09;1712274;82;20990;-81
2021/08/22 09:58:17;;;;;;;3.25;2.75;;;;;;;35.07;28.94;100967.92;1712037;82;21499;-82
2021/08/22 10:01:04;;;;;;;3.67;2.65;;;;;;;35.25;28.19;100967.43;1711708;82;21471;-80
2021/08/22 10:04:09;;;;;;;2.60;2.37;;;;;;;35.57;28.17;100965.45;1717631;81;21166;-81
2021/08/22 10:06:44;;;;;;;2.25;1.98;;;;;;;35.85;27.33;100967.26;1751953;81;20936;-82
2021/08/22 10:09:27;;;;;;;2.47;2.27;;;;;;;36.16;26.70;100969.88;1752637;82;20929;-78
2021/08/22 10:12:00;;;;;;;3.00;2.17;;;;;;;36.30;26.60;100960.20;1752453;80;20889;-72
2021/08/22 10:14:29;;;;;;;5.95;3.00;;;;;;;36.37;26.06;100966.83;1752570;81;20888;-76
2021/08/22 10:16:57;;;;;;;2.58;1.92;;;;;;;36.45;26.49;100967.75;1752566;81;21145;-73
2021/08/22 10:19:29;;;;;;;2.12;1.95;;;;;;;36.62;26.06;100965.48;1752412;81;20885;-74
2021/08/22 10:22:18;;;;;;;3.27;1.90;;;;;;;36.65;25.12;100967.17;1752710;81;20877;-73
2021/08/22 10:25:00;;;;;;;3.30;2.15;;;;;;;36.59;24.48;100969.53;1752205;81;21543;-75
2021/08/22 10:27:45;;;;;;;2.70;1.92;;;;;;;36.60;24.56;100974.52;1752487;82;20924;-74
2021/08/22 10:30:26;;;;;;;3.42;2.17;;;;;;;36.70;24.83;100965.84;1752515;81;21173;-79
2021/08/22 10:33:07;;;;;;;2.17;1.82;;;;;;;36.85;25.42;100973.93;1746263;80;20901;-74
2021/08/22 10:35:36;;;;;;;1.77;1.67;;;;;;;36.52;24.84;100976.56;1752394;81;21304;-82
2021/08/22 10:38:25;;;;;;;4.87;2.00;;;;;;;36.31;25.15;100972.79;1752455;81;20893;-76
2021/08/22 10:40:54;;;;;;;1.90;1.65;;;;;;;36.19;26.00;100976.73;1752501;82;20841;-73
2021/08/22 10:43:27;;;;;;;3.77;2.50;;;;;;;36.23;25.24;100974.59;1753046;82;21121;-73
2021/08/22 10:45:55;;;;;;;2.40;2.20;;;;;;;36.32;25.21;100974.97;1752391;80;21390;-74
2021/08/22 10:48:29;;;;;;;2.30;2.00;;;;;;;36.38;24.82;100975.87;1757008;80;21482;-75
2021/08/22 10:51:07;;;;;;;2.45;2.17;;;;;;;36.41;24.66;100971.25;1775303;80;20888;-74
2021/08/22 10:53:38;;;;;;;4.17;2.83;;;;;;;36.50;25.52;100977.91;1775561;80;21441;-76
2021/08/22 10:56:30;;;;;;;2.20;1.92;;;;;;;36.55;25.49;100979.87;1775291;80;22023;-71
2021/08/22 10:59:06;;;;;;;3.80;2.17;;;;;;;36.56;24.03;100977.44;1775191;80;20849;-71
2021/08/22 11:01:37;;;;;;;2.30;2.10;;;;;;;36.56;25.11;100975.52;1774896;80;20940;-73
2021/08/22 11:04:14;;;;;;;3.20;1.82;;;;;;;36.52;25.08;100974.38;1774787;80;21335;-74
2021/08/22 11:07:06;;;;;;;2.37;2.15;;;;;;;36.39;24.11;100974.23;1775433;80;21120;-74
2021/08/22 11:09:45;;;;;;;4.10;3.22;;;;;;;36.41;25.14;100973.44;1775247;80;22027;-74
2021/08/22 11:12:29;;;;;;;1.90;1.70;;;;;;;36.45;25.50;100971.03;1766293;80;20968;-73
2021/08/22 11:15:02;;;;;;;3.52;1.62;;;;;;;36.54;25.10;100968.13;1775315;80;20853;-73
2021/08/22 11:17:29;;;;;;;1.72;1.62;;;;;;;36.49;24.71;100962.61;1775085;80;21384;-73
2021/08/22 11:20:13;;;;;;;2.58;1.85;;;;;;;36.40;25.09;100961.42;1774921;80;21410;-73
2021/08/22 11:22:41;;;;;;;2.45;1.95;;;;;;;36.25;24.03;100964.24;1775247;80;21512;-75
2021/08/22 11:25:08;;;;;;;1.60;1.45;;;;;;;36.21;25.05;100960.37;1775301;80;20877;-73
2021/08/22 11:27:35;;;;;;;2.12;1.57;;;;;;;36.21;23.99;100957.63;1775053;80;21370;-73
2021/08/22 11:30:08;;;;;;;2.00;1.90;;;;;;;36.17;24.94;100953.77;1775163;80;20933;-73
2021/08/22 11:32:37;;;;;;;1.82;1.40;;;;;;;36.03;23.75;100954.66;1775245;80;21354;-74
2021/08/22 11:35:17;;;;;;;3.83;1.35;;;;;;;35.86;23.33;100957.98;1775130;80;21109;-73
2021/08/22 11:37:46;;;;;;;2.20;1.90;;;;;;;35.60;23.87;100948.60;1775181;80;20853;-78
2021/08/22 11:40:15;;;;;;;3.52;1.98;;;;;;;35.44;23.82;100950.25;1775098;80;20901;-74
2021/08/22 11:42:49;;;;;;;2.77;1.42;;;;;;;35.39;24.75;100951.00;1775083;80;21429;-74
2021/08/22 11:45:19;;;;;;;1.85;1.25;;;;;;;35.36;24.83;100954.23;1775519;80;21346;-73
2021/08/22 11:47:46;;;;;;;1.47;1.37;;;;;;;35.24;25.22;100951.61;1775194;80;21808;-69
2021/08/22 11:50:14;;;;;;;2.10;1.90;;;;;;;35.03;25.32;100940.86;1769245;80;20932;-71